createdAt,value
2023-01-02T00:00:43.636Z,132.50
2023-01-02T00:01:45.527Z,134.60
2023-01-02T00:02:43.660Z,128.50
2023-01-02T00:03:43.654Z,122.60
2023-01-02T00:04:36.997Z,130.30
2023-01-02T00:05:43.488Z,121.00
2023-01-02T00:06:36.994Z,128.80
2023-01-02T00:07:36.965Z,123.10
2023-01-02T00:08:36.953Z,125.50
2023-01-02T00:09:36.966Z,126.50
2023-01-02T00:10:36.969Z,128.70
2023-01-02T00:11:36.967Z,123.20
2023-01-02T00:12:36.920Z,123.30
2023-01-02T00:13:36.910Z,108.20
2023-01-02T00:14:36.882Z,115.40
2023-01-02T00:15:36.889Z,122.40
2023-01-02T00:16:36.983Z,114.00
2023-01-02T00:17:36.852Z,107.40
2023-01-02T00:18:36.856Z,110.60
2023-01-02T00:19:36.861Z,106.80
2023-01-02T00:20:36.826Z,112.10
2023-01-02T00:21:36.860Z,104.50
2023-01-02T00:22:43.314Z,107.20
2023-01-02T00:23:36.801Z,103.10
2023-01-02T00:24:36.790Z,105.80
2023-01-02T00:25:36.781Z,98.90
2023-01-02T00:26:36.782Z,100.50
2023-01-02T00:27:36.772Z,105.20
2023-01-02T00:28:36.759Z,95.30
2023-01-02T00:29:36.729Z,94.60
2023-01-02T00:30:38.650Z,94.10
2023-01-02T00:31:36.817Z,93.40
2023-01-02T00:32:36.699Z,96.40
2023-01-02T00:33:36.727Z,89.70
2023-01-02T00:34:36.692Z,88.10
2023-01-02T00:35:36.663Z,99.60
2023-01-02T00:36:36.731Z,91.80
2023-01-02T00:37:36.641Z,95.50
2023-01-02T00:38:38.450Z,93.10
2023-01-02T00:39:36.650Z,86.00
2023-01-02T00:40:36.628Z,87.90
2023-01-02T00:41:36.605Z,97.00
2023-01-02T00:42:36.623Z,94.70
2023-01-02T00:43:36.583Z,99.40
2023-01-02T00:44:36.587Z,90.60
2023-01-02T00:45:36.590Z,94.50
2023-01-02T00:46:36.610Z,90.70
2023-01-02T00:47:36.597Z,98.80
2023-01-02T00:48:36.539Z,100.80
2023-01-02T00:49:36.529Z,112.60
2023-01-02T00:50:36.514Z,107.10
2023-01-02T00:51:36.528Z,120.90
2023-01-02T00:52:36.517Z,114.70
2023-01-02T00:53:36.476Z,116.40
2023-01-02T00:54:36.509Z,108.70
2023-01-02T00:55:36.468Z,103.00
2023-01-02T00:56:36.465Z,96.90
2023-01-02T00:57:36.481Z,92.70
2023-01-02T00:58:36.425Z,91.00
2023-01-02T00:59:36.421Z,86.90
2023-01-02T01:00:36.435Z,94.20
2023-01-02T01:01:36.661Z,82.90
2023-01-02T01:02:36.494Z,73.10
2023-01-02T01:03:36.388Z,68.20
2023-01-02T01:04:42.858Z,70.60
2023-01-02T01:05:36.344Z,74.20
2023-01-02T01:06:36.349Z,68.70
2023-01-02T01:07:36.355Z,68.40
2023-01-02T01:08:36.324Z,71.00
2023-01-02T01:09:36.309Z,69.20
2023-01-02T01:10:36.296Z,77.90
2023-01-02T01:11:36.286Z,68.30
2023-01-02T01:12:36.348Z,84.10
2023-01-02T01:13:36.298Z,70.20
2023-01-02T01:14:36.254Z,65.80
2023-01-02T01:15:36.250Z,69.20
2023-01-02T01:16:36.296Z,80.00
2023-01-02T01:17:36.253Z,80.30
2023-01-02T01:18:36.217Z,76.50
2023-01-02T01:19:36.196Z,73.10
2023-01-02T01:20:36.203Z,70.40
2023-01-02T01:21:36.199Z,69.80
2023-01-02T01:22:36.198Z,69.80
2023-01-02T01:23:36.174Z,59.10
2023-01-02T01:24:36.145Z,74.50
2023-01-02T01:25:36.142Z,73.70
2023-01-02T01:26:36.124Z,55.40
2023-01-02T01:27:36.153Z,65.20
2023-01-02T01:28:36.102Z,58.60
2023-01-02T01:29:36.096Z,55.60
2023-01-02T01:30:36.099Z,64.20
2023-01-02T01:31:36.121Z,62.30
2023-01-02T01:32:36.079Z,61.80
2023-01-02T01:33:36.080Z,73.60
2023-01-02T01:34:36.043Z,68.20
2023-01-02T01:35:36.035Z,69.10
2023-01-02T01:36:36.026Z,71.40
2023-01-02T01:37:36.034Z,68.80
2023-01-02T01:38:36.047Z,60.70
2023-01-02T01:39:36.007Z,63.80
2023-01-02T01:40:35.976Z,61.50
2023-01-02T01:41:35.977Z,49.10
2023-01-02T01:42:35.980Z,46.70
2023-01-02T01:43:35.953Z,51.40
2023-01-02T01:44:35.948Z,52.50
2023-01-02T01:45:35.992Z,53.40
2023-01-02T01:46:35.915Z,50.90
2023-01-02T01:47:35.946Z,49.10
2023-01-02T01:48:35.911Z,57.80
2023-01-02T01:49:35.889Z,54.40
2023-01-02T01:50:35.882Z,50.60
2023-01-02T01:51:35.867Z,62.10
2023-01-02T01:52:35.888Z,49.90
2023-01-02T01:53:35.846Z,54.90
2023-01-02T01:54:35.835Z,45.30
2023-01-02T01:55:35.816Z,47.40
2023-01-02T01:56:35.811Z,47.50
2023-01-02T01:57:35.819Z,44.80
2023-01-02T01:58:35.792Z,50.30
2023-01-02T01:59:35.775Z,54.20
2023-01-02T02:00:35.775Z,49.80
2023-01-02T02:01:35.883Z,54.70
2023-01-02T02:02:35.903Z,54.90
2023-01-02T02:03:35.749Z,50.80
2023-01-02T02:04:35.738Z,53.30
2023-01-02T02:05:35.717Z,54.80
2023-01-02T02:06:35.703Z,62.20
2023-01-02T02:07:35.719Z,56.60
2023-01-02T02:08:35.706Z,59.10
2023-01-02T02:09:35.677Z,60.20
2023-01-02T02:10:35.662Z,64.40
2023-01-02T02:11:35.670Z,62.70
2023-01-02T02:12:35.672Z,62.20
2023-01-02T02:13:35.630Z,57.20
2023-01-02T02:14:35.628Z,61.30
2023-01-02T02:15:35.612Z,65.30
2023-01-02T02:16:35.619Z,66.90
2023-01-02T02:17:35.632Z,67.20
2023-01-02T02:18:35.589Z,83.20
2023-01-02T02:19:35.591Z,78.50
2023-01-02T02:20:35.584Z,85.90
2023-01-02T02:21:35.548Z,86.90
2023-01-02T02:22:35.561Z,89.90
2023-01-02T02:23:35.559Z,90.20
2023-01-02T02:24:35.565Z,103.80
2023-01-02T02:25:35.549Z,111.80
2023-01-02T02:26:35.533Z,102.10
2023-01-02T02:27:35.512Z,120.70
2023-01-02T02:28:35.508Z,102.30
2023-01-02T02:29:35.533Z,98.60
2023-01-02T02:30:35.455Z,111.70
2023-01-02T02:31:35.481Z,110.40
2023-01-02T02:32:35.463Z,113.60
2023-01-02T02:33:35.467Z,112.80
2023-01-02T02:34:35.425Z,109.40
2023-01-02T02:35:35.399Z,111.90
2023-01-02T02:36:35.397Z,109.80
2023-01-02T02:37:35.375Z,113.60
2023-01-02T02:38:35.400Z,110.10
2023-01-02T02:39:35.365Z,112.10
2023-01-02T02:40:35.358Z,112.60
2023-01-02T02:41:35.340Z,116.00
2023-01-02T02:42:35.330Z,115.50
2023-01-02T02:43:35.352Z,116.70
2023-01-02T02:44:35.310Z,120.90
2023-01-02T02:45:35.350Z,121.80
2023-01-02T02:46:35.287Z,122.20
2023-01-02T02:47:35.301Z,124.60
2023-01-02T02:48:35.297Z,121.20
2023-01-02T02:49:35.252Z,127.00
2023-01-02T02:50:35.264Z,122.70
2023-01-02T02:51:35.235Z,124.40
2023-01-02T02:52:35.230Z,127.40
2023-01-02T02:53:35.253Z,126.90
2023-01-02T02:54:35.216Z,123.20
2023-01-02T02:55:35.196Z,121.70
2023-01-02T02:56:35.177Z,128.20
2023-01-02T02:57:35.209Z,121.20
2023-01-02T02:58:35.184Z,128.10
2023-01-02T02:59:42.718Z,130.50
2023-01-02T03:00:35.152Z,124.20
2023-01-02T03:01:35.269Z,130.70
2023-01-02T03:02:35.244Z,133.10
2023-01-02T03:03:35.128Z,128.90
2023-01-02T03:04:35.124Z,133.30
2023-01-02T03:05:35.079Z,134.10
2023-01-02T03:06:35.086Z,137.80
2023-01-02T03:07:35.071Z,137.30
2023-01-02T03:08:35.087Z,138.70
2023-01-02T03:09:35.055Z,134.90
2023-01-02T03:10:35.072Z,142.60
2023-01-02T03:11:35.020Z,138.20
2023-01-02T03:12:35.015Z,137.50
2023-01-02T03:13:41.456Z,141.70
2023-01-02T03:14:35.030Z,142.50
2023-01-02T03:15:34.986Z,143.20
2023-01-02T03:16:34.995Z,140.20
2023-01-02T03:17:34.953Z,140.60
2023-01-02T03:18:34.957Z,143.40
2023-01-02T03:19:34.962Z,142.20
2023-01-02T03:20:34.933Z,143.70
2023-01-02T03:21:34.923Z,143.80
2023-01-02T03:22:34.932Z,141.20
2023-01-02T03:23:34.896Z,141.70
2023-01-02T03:24:34.907Z,144.00
2023-01-02T03:25:34.875Z,151.90
2023-01-02T03:26:34.869Z,154.00
2023-01-02T03:27:34.867Z,154.80
2023-01-02T03:28:34.847Z,153.10
2023-01-02T03:29:42.553Z,147.60
2023-01-02T03:30:41.325Z,149.40
2023-01-02T03:31:41.304Z,150.80
2023-01-02T03:32:41.307Z,146.60
2023-01-02T03:33:34.789Z,141.90
2023-01-02T03:34:34.811Z,142.00
2023-01-02T03:35:34.793Z,145.10
2023-01-02T03:36:34.772Z,145.60
2023-01-02T03:37:34.753Z,143.90
2023-01-02T03:38:34.752Z,151.20
2023-01-02T03:39:34.749Z,145.00
2023-01-02T03:40:34.714Z,143.00
2023-01-02T03:41:34.705Z,140.50
2023-01-02T03:42:34.702Z,147.10
2023-01-02T03:43:34.704Z,147.80
2023-01-02T03:44:34.703Z,147.80
2023-01-02T03:45:34.670Z,149.90
2023-01-02T03:46:34.689Z,148.00
2023-01-02T03:47:34.653Z,143.90
2023-01-02T03:48:34.632Z,141.90
2023-01-02T03:49:34.654Z,145.50
2023-01-02T03:50:34.662Z,140.60
2023-01-02T03:51:34.612Z,135.20
2023-01-02T03:52:34.597Z,138.20
2023-01-02T03:53:34.592Z,141.80
2023-01-02T03:54:34.600Z,136.00
2023-01-02T03:55:34.572Z,144.60
2023-01-02T03:56:34.567Z,141.00
2023-01-02T03:57:34.537Z,140.20
2023-01-02T03:58:34.574Z,145.60
2023-01-02T03:59:34.549Z,135.30
2023-01-02T04:00:34.530Z,137.70
2023-01-02T04:01:34.596Z,141.90
2023-01-02T04:02:34.692Z,136.20
2023-01-02T04:03:34.493Z,131.90
2023-01-02T04:04:34.502Z,136.00
2023-01-02T04:05:34.564Z,134.70
2023-01-02T04:06:34.448Z,137.30
2023-01-02T04:07:34.466Z,125.80
2023-01-02T04:08:34.424Z,129.60
2023-01-02T04:09:34.417Z,127.30
2023-01-02T04:10:34.470Z,128.70
2023-01-02T04:11:34.395Z,129.10
2023-01-02T04:12:34.379Z,128.90
2023-01-02T04:13:34.401Z,130.30
2023-01-02T04:14:42.120Z,126.60
2023-01-02T04:15:34.434Z,128.20
2023-01-02T04:16:34.369Z,129.60
2023-01-02T04:17:34.338Z,124.30
2023-01-02T04:18:34.321Z,124.50
2023-01-02T04:19:34.325Z,129.40
2023-01-02T04:20:34.349Z,123.90
2023-01-02T04:21:34.305Z,122.10
2023-01-02T04:22:34.288Z,123.10
2023-01-02T04:23:34.275Z,126.30
2023-01-02T04:24:34.255Z,127.70
2023-01-02T04:25:34.288Z,123.70
2023-01-02T04:26:34.283Z,127.00
2023-01-02T04:27:34.224Z,129.90
2023-01-02T04:28:34.232Z,127.50
2023-01-02T04:29:34.211Z,129.90
2023-01-02T04:30:34.213Z,132.00
2023-01-02T04:31:34.258Z,129.40
2023-01-02T04:32:34.170Z,126.20
2023-01-02T04:33:34.179Z,123.80
2023-01-02T04:34:34.147Z,122.70
2023-01-02T04:35:34.174Z,129.30
2023-01-02T04:36:34.130Z,134.50
2023-01-02T04:37:34.138Z,136.30
2023-01-02T04:38:34.106Z,137.80
2023-01-02T04:39:34.101Z,137.60
2023-01-02T04:40:34.121Z,129.70
2023-01-02T04:41:34.112Z,124.50
2023-01-02T04:42:34.079Z,125.20
2023-01-02T04:43:34.077Z,126.90
2023-01-02T04:44:34.047Z,126.60
2023-01-02T04:45:34.070Z,133.00
2023-01-02T04:46:34.094Z,131.60
2023-01-02T04:47:34.032Z,132.50
2023-01-02T04:48:34.009Z,132.80
2023-01-02T04:49:34.001Z,131.00
2023-01-02T04:50:34.030Z,133.30
2023-01-02T04:51:33.984Z,131.00
2023-01-02T04:52:37.307Z,128.30
2023-01-02T04:53:33.973Z,129.50
2023-01-02T04:54:33.981Z,129.10
2023-01-02T04:55:33.958Z,130.90
2023-01-02T04:56:33.936Z,135.40
2023-01-02T04:57:33.925Z,136.80
2023-01-02T04:58:33.907Z,137.50
2023-01-02T04:59:33.895Z,143.20
2023-01-02T05:00:33.899Z,142.00
2023-01-02T05:01:33.975Z,143.00
2023-01-02T05:02:33.971Z,144.00
2023-01-02T05:03:33.892Z,141.30
2023-01-02T05:04:33.836Z,133.80
2023-01-02T05:05:33.863Z,140.70
2023-01-02T05:06:33.829Z,144.40
2023-01-02T05:07:33.809Z,142.30
2023-01-02T05:08:33.799Z,144.80
2023-01-02T05:09:33.786Z,144.20
2023-01-02T05:10:33.801Z,150.50
2023-01-02T05:11:33.769Z,151.70
2023-01-02T05:12:33.750Z,153.40
2023-01-02T05:13:33.754Z,155.50
2023-01-02T05:14:33.743Z,154.10
2023-01-02T05:15:33.793Z,148.10
2023-01-02T05:16:33.728Z,148.30
2023-01-02T05:17:33.701Z,150.80
2023-01-02T05:18:33.701Z,151.40
2023-01-02T05:19:33.701Z,146.10
2023-01-02T05:20:33.698Z,147.30
2023-01-02T05:21:33.674Z,145.10
2023-01-02T05:22:33.650Z,142.00
2023-01-02T05:23:33.641Z,144.70
2023-01-02T05:24:33.630Z,143.60
2023-01-02T05:25:33.664Z,138.60
2023-01-02T05:26:33.618Z,139.20
2023-01-02T05:27:33.592Z,137.20
2023-01-02T05:28:38.397Z,135.80
2023-01-02T05:29:33.611Z,133.80
2023-01-02T05:30:33.595Z,136.80
2023-01-02T05:31:33.644Z,125.50
2023-01-02T05:32:33.559Z,121.30
2023-01-02T05:33:33.544Z,121.80
2023-01-02T05:34:33.530Z,124.80
2023-01-02T05:35:33.708Z,128.60
2023-01-02T05:36:33.503Z,125.00
2023-01-02T05:37:33.505Z,116.00
2023-01-02T05:38:33.481Z,121.90
2023-01-02T05:39:33.473Z,123.70
2023-01-02T05:40:33.488Z,113.90
2023-01-02T05:41:33.460Z,112.10
2023-01-02T05:42:33.441Z,113.20
2023-01-02T05:43:33.430Z,117.70
2023-01-02T05:44:33.424Z,117.90
2023-01-02T05:45:33.437Z,118.00
2023-01-02T05:46:33.448Z,116.60
2023-01-02T05:47:33.392Z,116.80
2023-01-02T05:48:33.371Z,115.90
2023-01-02T05:49:33.369Z,110.50
2023-01-02T05:50:33.354Z,104.90
2023-01-02T05:51:33.397Z,106.70
2023-01-02T05:52:33.338Z,108.60
2023-01-02T05:53:33.334Z,111.20
2023-01-02T05:54:33.326Z,105.90
2023-01-02T05:55:33.316Z,111.70
2023-01-02T05:56:33.324Z,109.00
2023-01-02T05:57:33.282Z,101.50
2023-01-02T05:58:33.300Z,102.40
2023-01-02T05:59:36.082Z,110.60
2023-01-02T06:00:33.253Z,110.60
2023-01-02T06:01:33.414Z,114.20
2023-01-02T06:02:33.315Z,110.10
2023-01-02T06:03:33.252Z,115.40
2023-01-02T06:04:33.216Z,117.10
2023-01-02T06:05:33.211Z,116.10
2023-01-02T06:06:33.221Z,117.80
2023-01-02T06:07:33.194Z,114.40
2023-01-02T06:08:33.204Z,117.80
2023-01-02T06:09:33.156Z,111.70
2023-01-02T06:10:33.156Z,103.30
2023-01-02T06:11:33.159Z,109.40
2023-01-02T06:12:33.133Z,120.90
2023-01-02T06:13:33.123Z,114.20
2023-01-02T06:14:33.126Z,114.70
2023-01-02T06:15:33.095Z,111.60
2023-01-02T06:16:33.177Z,111.10
2023-01-02T06:17:33.071Z,112.10
2023-01-02T06:18:33.064Z,110.70
2023-01-02T06:19:33.059Z,113.00
2023-01-02T06:20:33.042Z,111.70
2023-01-02T06:21:33.062Z,116.90
2023-01-02T06:22:33.030Z,116.60
2023-01-02T06:23:33.010Z,116.10
2023-01-02T06:24:33.002Z,117.60
2023-01-02T06:25:32.989Z,123.60
2023-01-02T06:26:35.449Z,128.20
2023-01-02T06:27:32.993Z,126.80
2023-01-02T06:28:32.963Z,124.90
2023-01-02T06:29:32.941Z,120.00
2023-01-02T06:30:32.940Z,120.50
2023-01-02T06:31:32.977Z,112.30
2023-01-02T06:32:32.926Z,116.80
2023-01-02T06:33:32.914Z,116.00
2023-01-02T06:34:32.900Z,113.10
2023-01-02T06:35:32.877Z,114.60
2023-01-02T06:36:32.898Z,121.00
2023-01-02T06:37:32.874Z,114.30
2023-01-02T06:38:32.853Z,113.50
2023-01-02T06:39:32.853Z,113.80
2023-01-02T06:40:32.872Z,111.40
2023-01-02T06:41:32.846Z,108.60
2023-01-02T06:42:33.324Z,105.90
2023-01-02T06:43:32.823Z,111.70
2023-01-02T06:44:32.792Z,109.40
2023-01-02T06:45:32.858Z,109.20
2023-01-02T06:46:32.814Z,110.10
2023-01-02T06:47:32.758Z,107.50
2023-01-02T06:48:32.769Z,113.20
2023-01-02T06:49:32.732Z,107.60
2023-01-02T06:50:35.083Z,102.60
2023-01-02T06:51:32.743Z,101.90
2023-01-02T06:52:32.706Z,104.10
2023-01-02T06:53:32.693Z,100.00
2023-01-02T06:54:32.705Z,101.20
2023-01-02T06:55:32.683Z,104.80
2023-01-02T06:56:32.684Z,104.90
2023-01-02T06:57:32.657Z,105.50
2023-01-02T06:58:32.651Z,108.00
2023-01-02T06:59:32.638Z,108.30
2023-01-02T07:00:32.665Z,101.40
2023-01-02T07:01:32.784Z,98.70
2023-01-02T07:02:32.656Z,97.90
2023-01-02T07:03:32.611Z,98.80
2023-01-02T07:04:32.599Z,101.50
2023-01-02T07:05:32.582Z,110.80
2023-01-02T07:06:32.590Z,106.10
2023-01-02T07:07:32.557Z,110.00
2023-01-02T07:08:32.555Z,102.90
2023-01-02T07:09:32.522Z,109.10
2023-01-02T07:10:32.529Z,109.60
2023-01-02T07:11:32.540Z,107.70
2023-01-02T07:12:32.497Z,104.70
2023-01-02T07:13:32.485Z,104.00
2023-01-02T07:14:32.485Z,102.80
2023-01-02T07:15:32.421Z,100.50
2023-01-02T07:16:32.424Z,106.20
2023-01-02T07:17:32.465Z,103.70
2023-01-02T07:18:32.382Z,103.40
2023-01-02T07:19:32.365Z,99.40
2023-01-02T07:20:32.363Z,97.20
2023-01-02T07:21:32.352Z,96.90
2023-01-02T07:22:32.407Z,101.00
2023-01-02T07:23:32.328Z,102.10
2023-01-02T07:24:32.316Z,97.20
2023-01-02T07:25:32.308Z,96.40
2023-01-02T07:26:32.357Z,96.00
2023-01-02T07:27:32.311Z,95.70
2023-01-02T07:28:32.278Z,97.20
2023-01-02T07:29:32.271Z,93.80
2023-01-02T07:30:32.273Z,97.30
2023-01-02T07:31:32.302Z,99.20
2023-01-02T07:32:32.261Z,101.20
2023-01-02T07:33:32.253Z,91.60
2023-01-02T07:34:32.211Z,95.10
2023-01-02T07:35:32.206Z,101.30
2023-01-02T07:36:32.216Z,95.60
2023-01-02T07:37:38.678Z,95.80
2023-01-02T07:38:32.182Z,105.20
2023-01-02T07:39:38.669Z,104.80
2023-01-02T07:40:32.628Z,101.30
2023-01-02T07:41:32.144Z,100.70
2023-01-02T07:42:32.157Z,102.20
2023-01-02T07:43:38.609Z,100.00
2023-01-02T07:44:32.121Z,99.40
2023-01-02T07:45:32.154Z,101.80
2023-01-02T07:46:32.120Z,101.40
2023-01-02T07:47:32.095Z,104.00
2023-01-02T07:48:32.083Z,107.30
2023-01-02T07:49:32.054Z,105.60
2023-01-02T07:50:32.044Z,107.20
2023-01-02T07:51:32.055Z,107.40
2023-01-02T07:52:32.048Z,109.40
2023-01-02T07:53:32.027Z,106.50
2023-01-02T07:54:32.020Z,107.30
2023-01-02T07:55:31.991Z,106.90
2023-01-02T07:56:31.983Z,107.00
2023-01-02T07:57:32.000Z,105.60
2023-01-02T07:58:38.449Z,105.00
2023-01-02T07:59:31.974Z,110.50
2023-01-02T08:00:31.937Z,106.80
2023-01-02T08:01:32.032Z,103.90
2023-01-02T08:02:39.820Z,110.80
2023-01-02T08:03:38.478Z,108.70
2023-01-02T08:04:31.970Z,100.90
2023-01-02T08:05:38.378Z,102.70
2023-01-02T08:06:31.886Z,101.40
2023-01-02T08:07:31.893Z,105.50
2023-01-02T08:08:31.863Z,109.10
2023-01-02T08:09:31.856Z,108.70
2023-01-02T08:10:31.854Z,110.80
2023-01-02T08:11:31.844Z,111.70
2023-01-02T08:12:31.815Z,110.20
2023-01-02T08:13:31.824Z,112.00
2023-01-02T08:14:31.799Z,112.10
2023-01-02T08:15:31.781Z,113.70
2023-01-02T08:16:31.855Z,112.70
2023-01-02T08:17:31.761Z,111.30
2023-01-02T08:18:31.773Z,118.20
2023-01-02T08:19:31.775Z,115.70
2023-01-02T08:20:31.761Z,118.50
2023-01-02T08:21:31.718Z,116.40
2023-01-02T08:22:31.711Z,118.50
2023-01-02T08:23:31.720Z,121.10
2023-01-02T08:24:31.691Z,120.30
2023-01-02T08:25:31.685Z,116.70
2023-01-02T08:26:31.668Z,119.30
2023-01-02T08:27:31.679Z,119.10
2023-01-02T08:28:31.675Z,123.80
2023-01-02T08:29:31.629Z,122.10
2023-01-02T08:30:31.735Z,121.90
2023-01-02T08:31:31.644Z,120.50
2023-01-02T08:32:31.604Z,121.40
2023-01-02T08:33:31.652Z,121.50
2023-01-02T08:34:31.615Z,117.90
2023-01-02T08:35:38.331Z,118.00
2023-01-02T08:36:31.586Z,119.20
2023-01-02T08:37:31.556Z,114.40
2023-01-02T08:38:31.563Z,107.50
2023-01-02T08:39:31.531Z,109.10
2023-01-02T08:40:31.517Z,110.50
2023-01-02T08:41:31.531Z,115.20
2023-01-02T08:42:31.500Z,117.80
2023-01-02T08:43:31.516Z,118.20
2023-01-02T08:44:31.478Z,117.70
2023-01-02T08:45:31.463Z,119.30
2023-01-02T08:46:35.469Z,124.40
2023-01-02T08:47:31.445Z,120.10
2023-01-02T08:48:31.452Z,119.40
2023-01-02T08:49:31.457Z,116.20
2023-01-02T08:50:31.416Z,111.80
2023-01-02T08:51:31.396Z,115.70
2023-01-02T08:52:31.387Z,122.00
2023-01-02T08:53:31.425Z,122.60
2023-01-02T08:54:31.377Z,123.40
2023-01-02T08:55:31.355Z,120.80
2023-01-02T08:56:31.353Z,120.00
2023-01-02T08:57:31.335Z,117.50
2023-01-02T08:58:31.351Z,120.50
2023-01-02T08:59:31.335Z,110.90
2023-01-02T09:00:31.314Z,102.20
2023-01-02T09:01:31.485Z,87.40
2023-01-02T09:02:31.468Z,64.90
2023-01-02T09:03:31.344Z,49.50
2023-01-02T09:04:31.271Z,38.40
2023-01-02T09:05:37.739Z,32.30
2023-01-02T09:06:37.738Z,21.50
2023-01-02T09:07:31.235Z,15.50
2023-01-02T09:08:31.247Z,14.90
2023-01-02T09:09:31.214Z,18.00
2023-01-02T09:10:31.213Z,26.40
2023-01-02T09:11:31.197Z,20.20
2023-01-02T09:12:31.177Z,28.50
2023-01-02T09:13:31.185Z,31.70
2023-01-02T09:14:31.163Z,37.30
2023-01-02T09:15:31.161Z,36.30
2023-01-02T09:16:31.140Z,26.50
2023-01-02T09:17:31.124Z,21.20
2023-01-02T09:18:31.174Z,24.80
2023-01-02T09:19:31.094Z,33.50
2023-01-02T09:20:31.092Z,25.30
2023-01-02T09:21:31.081Z,24.60
2023-01-02T09:22:31.080Z,18.50
2023-01-02T09:23:31.084Z,13.30
2023-01-02T09:24:31.085Z,19.70
2023-01-02T09:25:31.031Z,15.50
2023-01-02T09:26:31.024Z,17.10
2023-01-02T09:27:31.023Z,29.20
2023-01-02T09:28:31.006Z,25.30
2023-01-02T09:29:31.017Z,27.80
2023-01-02T09:30:31.000Z,20.90
2023-01-02T09:31:31.030Z,23.90
2023-01-02T09:32:30.977Z,15.20
2023-01-02T09:33:30.958Z,18.10
2023-01-02T09:34:30.968Z,18.10
2023-01-02T09:35:30.937Z,18.50
2023-01-02T09:36:30.922Z,19.60
2023-01-02T09:37:30.910Z,23.60
2023-01-02T09:38:30.898Z,20.00
2023-01-02T09:39:32.911Z,17.30
2023-01-02T09:40:30.887Z,21.90
2023-01-02T09:41:30.869Z,18.40
2023-01-02T09:42:30.858Z,21.10
2023-01-02T09:43:30.848Z,24.00
2023-01-02T09:44:30.863Z,30.90
2023-01-02T09:45:30.822Z,31.70
2023-01-02T09:46:30.859Z,26.60
2023-01-02T09:47:30.796Z,20.00
2023-01-02T09:48:30.791Z,24.60
2023-01-02T09:49:30.810Z,29.20
2023-01-02T09:50:30.767Z,31.40
2023-01-02T09:51:30.768Z,31.50
2023-01-02T09:52:30.761Z,29.70
2023-01-02T09:53:30.749Z,38.90
2023-01-02T09:54:30.761Z,40.10
2023-01-02T09:55:30.735Z,37.60
2023-01-02T09:56:33.916Z,39.90
2023-01-02T09:57:30.702Z,39.40
2023-01-02T09:58:30.706Z,19.60
2023-01-02T09:59:30.716Z,23.20
2023-01-02T10:00:30.661Z,32.40
2023-01-02T10:01:30.675Z,31.90
2023-01-02T10:02:30.684Z,40.30
2023-01-02T10:03:30.809Z,37.10
2023-01-02T10:04:30.646Z,37.70
2023-01-02T10:05:30.636Z,38.20
2023-01-02T10:06:30.610Z,38.20
2023-01-02T10:07:30.634Z,36.60
2023-01-02T10:08:32.404Z,46.00
2023-01-02T10:09:30.599Z,41.80
2023-01-02T10:10:30.569Z,39.10
2023-01-02T10:11:30.571Z,32.50
2023-01-02T10:12:30.540Z,39.30
2023-01-02T10:14:08.462Z,37.30
2023-01-02T10:14:37.351Z,41.60
2023-01-02T10:15:30.522Z,39.30
2023-01-02T10:16:30.522Z,48.10
2023-01-02T10:17:30.502Z,47.00
2023-01-02T10:18:30.496Z,42.70
2023-01-02T10:19:30.494Z,42.90
2023-01-02T10:20:30.451Z,40.20
2023-01-02T10:21:30.453Z,57.90
2023-01-02T10:22:30.427Z,46.00
2023-01-02T10:23:30.436Z,47.90
2023-01-02T10:24:30.444Z,63.70
2023-01-02T10:25:30.420Z,53.40
2023-01-02T10:26:30.389Z,65.50
2023-01-02T10:27:30.385Z,60.20
2023-01-02T10:28:30.423Z,55.40
2023-01-02T10:29:30.407Z,55.00
2023-01-02T10:30:30.369Z,46.60
2023-01-02T10:31:30.374Z,46.20
2023-01-02T10:32:30.337Z,39.70
2023-01-02T10:33:30.317Z,33.90
2023-01-02T10:34:30.326Z,32.50
2023-01-02T10:35:30.318Z,40.90
2023-01-02T10:36:30.307Z,44.30
2023-01-02T10:37:30.284Z,48.20
2023-01-02T10:38:30.265Z,43.50
2023-01-02T10:39:30.266Z,45.50
2023-01-02T10:40:30.268Z,58.50
2023-01-02T10:41:30.247Z,46.80
2023-01-02T10:42:30.217Z,46.60
2023-01-02T10:43:30.215Z,47.50
2023-01-02T10:44:30.205Z,43.80
2023-01-02T10:45:30.213Z,37.60
2023-01-02T10:46:30.280Z,32.60
2023-01-02T10:47:30.176Z,39.10
2023-01-02T10:48:30.155Z,48.50
2023-01-02T10:49:30.151Z,56.30
2023-01-02T10:50:30.159Z,47.30
2023-01-02T10:51:30.150Z,30.90
2023-01-02T10:52:30.119Z,29.80
2023-01-02T10:53:30.110Z,29.40
2023-01-02T10:54:30.105Z,28.60
2023-01-02T10:55:30.109Z,24.70
2023-01-02T10:56:30.070Z,22.80
2023-01-02T10:57:30.083Z,24.30
2023-01-02T10:58:30.046Z,22.40
2023-01-02T10:59:30.057Z,28.70
2023-01-02T11:00:30.143Z,29.60
2023-01-02T11:01:30.257Z,27.50
2023-01-02T11:02:30.168Z,26.30
2023-01-02T11:03:30.018Z,32.50
2023-01-02T11:04:30.057Z,32.10
2023-01-02T11:05:30.002Z,26.00
2023-01-02T11:06:35.093Z,14.60
2023-01-02T11:07:29.966Z,18.70
2023-01-02T11:08:29.940Z,13.80
2023-01-02T11:09:29.933Z,11.70
2023-01-02T11:10:29.969Z,9.40
2023-01-02T11:11:29.909Z,11.00
2023-01-02T11:12:29.900Z,8.10
2023-01-02T11:13:29.899Z,7.70
2023-01-02T11:14:29.885Z,11.00
2023-01-02T11:15:29.928Z,8.60
2023-01-02T11:16:29.882Z,6.50
2023-01-02T11:17:29.849Z,9.90
2023-01-02T11:18:29.837Z,10.20
2023-01-02T11:19:30.166Z,8.40
2023-01-02T11:20:29.842Z,6.40
2023-01-02T11:21:29.833Z,5.90
2023-01-02T11:22:29.794Z,5.70
2023-01-02T11:23:29.785Z,5.20
2023-01-02T11:24:29.789Z,4.00
2023-01-02T11:25:29.760Z,5.00
2023-01-02T11:26:29.772Z,5.80
2023-01-02T11:27:29.755Z,7.10
2023-01-02T11:28:29.730Z,7.50
2023-01-02T11:29:29.730Z,6.00
2023-01-02T11:30:29.707Z,3.70
2023-01-02T11:31:29.817Z,2.70
2023-01-02T11:32:29.675Z,3.40
2023-01-02T11:33:29.680Z,3.50
2023-01-02T11:34:29.664Z,4.20
2023-01-02T11:35:29.661Z,3.20
2023-01-02T11:36:29.666Z,3.10
2023-01-02T11:37:29.642Z,2.80
2023-01-02T11:38:30.924Z,3.70
2023-01-02T11:39:29.606Z,2.50
2023-01-02T11:40:29.599Z,2.90
2023-01-02T11:41:29.609Z,2.50
2023-01-02T11:42:29.580Z,2.10
2023-01-02T11:43:29.591Z,2.90
2023-01-02T11:44:29.554Z,3.20
2023-01-02T11:45:29.618Z,2.30
2023-01-02T11:46:29.553Z,2.50
2023-01-02T11:47:29.530Z,2.80
2023-01-02T11:48:29.527Z,2.60
2023-01-02T11:49:29.539Z,3.40
2023-01-02T11:50:29.502Z,4.50
2023-01-02T11:51:29.518Z,2.90
2023-01-02T11:52:29.465Z,3.20
2023-01-02T11:53:29.462Z,3.00
2023-01-02T11:54:29.448Z,2.60
2023-01-02T11:55:29.447Z,2.40
2023-01-02T11:56:37.258Z,2.20
2023-01-02T11:57:35.929Z,1.50
2023-01-02T11:58:35.919Z,1.70
2023-01-02T11:59:35.901Z,1.70
2023-01-02T12:00:35.877Z,1.70
2023-01-02T12:01:37.366Z,1.40
2023-01-02T12:02:29.385Z,1.50
2023-01-02T12:03:29.418Z,1.80
2023-01-02T12:04:29.337Z,1.60
2023-01-02T12:05:29.371Z,1.30
2023-01-02T12:06:29.320Z,1.60
2023-01-02T12:07:29.340Z,1.60
2023-01-02T12:08:29.328Z,1.60
2023-01-02T12:09:29.315Z,1.80
2023-01-02T12:10:29.279Z,1.70
2023-01-02T12:11:29.273Z,2.10
2023-01-02T12:12:29.283Z,2.00
2023-01-02T12:13:29.251Z,1.90
2023-01-02T12:14:29.264Z,2.10
2023-01-02T12:15:29.246Z,1.80
2023-01-02T12:16:29.224Z,2.00
2023-01-02T12:17:29.230Z,2.70
2023-01-02T12:18:29.193Z,2.50
2023-01-02T12:19:29.187Z,2.60
2023-01-02T12:20:29.168Z,2.30
2023-01-02T12:21:29.170Z,2.50
2023-01-02T12:22:29.198Z,2.00
2023-01-02T12:23:29.145Z,2.40
2023-01-02T12:24:29.137Z,2.00
2023-01-02T12:25:29.137Z,2.00
2023-01-02T12:26:29.115Z,2.30
2023-01-02T12:27:29.127Z,2.10
2023-01-02T12:28:29.088Z,2.70
2023-01-02T12:29:47.227Z,2.40
2023-01-02T12:30:29.067Z,2.40
2023-01-02T12:31:29.087Z,2.00
2023-01-02T12:32:29.096Z,2.40
2023-01-02T12:33:29.046Z,2.50
2023-01-02T12:34:29.032Z,2.20
2023-01-02T12:35:29.013Z,2.40
2023-01-02T12:36:29.004Z,2.20
2023-01-02T12:37:29.026Z,2.20
2023-01-02T12:38:33.373Z,2.90
2023-01-02T12:39:28.977Z,2.90
2023-01-02T12:40:28.969Z,2.50
2023-01-02T12:41:28.965Z,2.40
2023-01-02T12:42:28.970Z,3.10